createdAt,value
2018-04-23T00:01:11.270Z,23.70
2018-04-23T00:06:06.866Z,23.60
2018-04-23T00:08:34.210Z,23.50
2018-04-23T00:13:30.626Z,23.40
2018-04-23T00:15:58.022Z,23.50
2018-04-23T00:18:26.102Z,23.60
2018-04-23T00:20:53.429Z,24.10
2018-04-23T00:23:20.790Z,24.30
2018-04-23T00:25:48.880Z,24.30
2018-04-23T00:28:16.324Z,24.70
2018-04-23T00:30:44.378Z,24.90
2018-04-23T00:33:11.718Z,25.10
2018-04-23T00:35:39.866Z,25.10
2018-04-23T00:38:08.002Z,25.10
2018-04-23T00:40:35.397Z,25.00
2018-04-23T00:43:03.492Z,25.00
2018-04-23T00:45:30.831Z,24.70
2018-04-23T00:47:59.047Z,24.50
2018-04-23T00:50:26.356Z,24.60
2018-04-23T00:53:05.890Z,24.80
2018-04-23T00:55:33.346Z,24.80
2018-04-23T00:58:01.450Z,24.90
2018-04-23T01:02:57.075Z,24.70
2018-04-23T01:05:25.275Z,24.60
2018-04-23T01:07:52.617Z,24.70
2018-04-23T01:10:19.998Z,24.80
2018-04-23T01:12:47.450Z,24.80
2018-04-23T01:15:14.849Z,24.80
2018-04-23T01:17:42.215Z,24.80
2018-04-23T01:20:10.447Z,24.60
2018-04-23T01:22:37.775Z,24.50
2018-04-23T01:25:05.243Z,24.40
2018-04-23T01:27:33.474Z,23.90
2018-04-23T01:30:00.834Z,23.60
2018-04-23T01:32:28.176Z,23.50
2018-04-23T01:37:23.790Z,23.70
2018-04-23T01:42:20.226Z,23.50
2018-04-23T01:44:47.632Z,23.40
2018-04-23T01:47:15.735Z,23.20
2018-04-23T01:49:43.081Z,23.00
2018-04-23T01:52:10.438Z,22.90
2018-04-23T01:54:37.814Z,22.90
2018-04-23T01:57:05.186Z,22.90
2018-04-23T02:02:01.534Z,23.00
2018-04-23T02:04:29.043Z,22.90
2018-04-23T02:06:57.148Z,22.80
2018-04-23T02:09:25.314Z,22.90
2018-04-23T02:11:52.718Z,23.00
2018-04-23T02:14:20.265Z,23.00
2018-04-23T02:16:47.659Z,23.20
2018-04-23T02:19:15.781Z,23.40
2018-04-23T02:24:12.126Z,23.40
2018-04-23T02:26:40.205Z,23.70
2018-04-23T02:29:08.418Z,23.50
2018-04-23T02:31:36.537Z,23.70
2018-04-23T02:34:03.883Z,23.80
2018-04-23T02:36:31.992Z,23.50
2018-04-23T02:43:56.623Z,23.20
2018-04-23T02:46:24.084Z,23.00
2018-04-23T02:48:52.171Z,22.90
2018-04-23T02:51:19.618Z,22.90
2018-04-23T02:53:47.010Z,22.90
2018-04-23T02:58:43.082Z,23.00
2018-04-23T03:01:11.246Z,22.80
2018-04-23T03:03:38.583Z,22.70
2018-04-23T03:06:06.682Z,22.80
2018-04-23T03:08:34.880Z,22.60
2018-04-23T03:11:02.265Z,22.50
2018-04-23T03:13:29.718Z,22.50
2018-04-23T03:18:25.507Z,22.90
2018-04-23T03:20:52.863Z,22.70
2018-04-23T03:25:48.528Z,22.60
2018-04-23T03:30:44.443Z,22.80
2018-04-23T03:33:12.136Z,22.60
2018-04-23T03:35:39.507Z,22.50
2018-04-23T03:38:06.919Z,22.50
2018-04-23T03:40:34.270Z,22.70
2018-04-23T03:45:30.734Z,22.70
2018-04-23T03:47:58.841Z,22.70
2018-04-23T03:52:54.510Z,22.90
2018-04-23T03:55:21.860Z,23.10
2018-04-23T04:00:17.791Z,23.20
2018-04-23T04:02:45.130Z,23.10
2018-04-23T04:07:41.686Z,23.50
2018-04-23T04:12:50.314Z,23.20
2018-04-23T04:15:30.570Z,23.40
2018-04-23T04:21:07.348Z,22.90
2018-04-23T04:23:34.870Z,22.60
2018-04-23T04:26:02.197Z,22.50
2018-04-23T04:28:29.558Z,22.30
2018-04-23T04:30:56.886Z,22.30
2018-04-23T04:35:53.238Z,22.10
2018-04-23T04:38:21.481Z,22.20
2018-04-23T04:40:48.822Z,22.20
2018-04-23T04:43:16.195Z,22.30
2018-04-23T04:45:44.342Z,22.30
2018-04-23T04:48:11.755Z,22.90
2018-04-23T04:50:39.868Z,22.70
2018-04-23T04:53:07.315Z,22.40
2018-04-23T04:55:35.411Z,22.30
2018-04-23T04:58:02.778Z,22.30
2018-04-23T05:00:30.269Z,22.20
2018-04-23T05:02:57.902Z,22.00
2018-04-23T05:05:25.329Z,22.10
2018-04-23T05:07:52.678Z,22.00
2018-04-23T05:10:20.837Z,22.10
2018-04-23T05:12:48.233Z,22.20
2018-04-23T05:20:12.329Z,22.10
2018-04-23T05:22:39.802Z,22.20
2018-04-23T05:27:36.178Z,22.10
2018-04-23T05:30:04.377Z,22.20
2018-04-23T05:35:00.006Z,22.20
2018-04-23T05:37:28.070Z,22.10
2018-04-23T05:42:23.727Z,22.00
2018-04-23T05:44:51.787Z,21.80
2018-04-23T05:47:19.902Z,21.80
2018-04-23T05:52:16.342Z,21.70
2018-04-23T05:54:44.527Z,21.60
2018-04-23T05:57:11.902Z,21.60
2018-04-23T05:59:39.992Z,21.60
2018-04-23T06:02:07.496Z,21.50
2018-04-23T06:04:34.884Z,21.60
2018-04-23T06:09:31.343Z,22.30
2018-04-23T06:11:59.438Z,22.40
2018-04-23T06:19:23.682Z,21.80
2018-04-23T06:21:51.087Z,21.60
2018-04-23T06:24:19.299Z,21.40
2018-04-23T06:26:46.650Z,21.40
2018-04-23T06:29:13.990Z,21.40
2018-04-23T06:34:10.336Z,21.30
2018-04-23T06:36:37.671Z,21.40
2018-04-23T06:39:05.053Z,21.50
2018-04-23T06:41:32.392Z,21.40
2018-04-23T06:43:59.766Z,21.30
2018-04-23T06:46:27.174Z,21.20
2018-04-23T06:48:54.481Z,21.20
2018-04-23T06:51:21.815Z,21.20
2018-04-23T06:53:50.073Z,21.30
2018-04-23T06:56:17.397Z,21.30
2018-04-23T06:58:45.538Z,21.40
2018-04-23T07:03:41.173Z,21.70
2018-04-23T07:06:08.512Z,21.80
2018-04-23T07:08:35.871Z,21.90
2018-04-23T07:11:03.324Z,22.10
2018-04-23T07:13:30.662Z,22.40
2018-04-23T07:15:58.031Z,22.90
2018-04-23T07:20:53.717Z,24.00
2018-04-23T07:23:21.773Z,24.10
2018-04-23T07:25:49.924Z,23.90
2018-04-23T07:28:17.406Z,24.20
2018-04-23T07:30:45.526Z,23.90
2018-04-23T07:33:12.878Z,24.20
2018-04-23T07:35:41.072Z,24.80
2018-04-23T07:38:08.414Z,25.40
2018-04-23T07:40:35.808Z,25.60
2018-04-23T07:43:03.915Z,25.50
2018-04-23T07:45:31.321Z,25.50
2018-04-23T07:50:27.158Z,25.10
2018-04-23T07:52:54.571Z,25.00
2018-04-23T07:55:22.692Z,25.20
2018-04-23T07:57:50.049Z,25.20
2018-04-23T08:00:17.430Z,25.70
2018-04-23T08:05:13.820Z,26.40
2018-04-23T08:07:41.229Z,26.60
2018-04-23T08:10:09.381Z,26.90
2018-04-23T08:15:05.794Z,27.30
2018-04-23T08:17:33.940Z,27.20
2018-04-23T08:20:01.309Z,26.90
2018-04-23T08:24:56.974Z,26.40
2018-04-23T08:27:24.330Z,26.50
2018-04-23T08:29:52.382Z,26.50
2018-04-23T08:32:19.736Z,26.10
2018-04-23T08:34:47.158Z,25.90
2018-04-23T08:37:14.552Z,25.20
2018-04-23T08:42:10.270Z,25.30
2018-04-23T08:44:37.678Z,24.60
2018-04-23T08:47:05.021Z,24.40
2018-04-23T08:49:32.391Z,24.20
2018-04-23T08:51:59.751Z,24.30
2018-04-23T08:54:27.827Z,24.30
2018-04-23T08:56:55.243Z,24.90
2018-04-23T09:01:51.598Z,25.80
2018-04-23T09:04:19.399Z,26.00
2018-04-23T09:06:46.779Z,25.50
2018-04-23T09:09:14.135Z,24.30
2018-04-23T09:14:10.556Z,25.30
2018-04-23T09:19:06.999Z,26.20
2018-04-23T09:24:02.659Z,26.40
2018-04-23T09:28:59.065Z,26.50
2018-04-23T09:31:26.584Z,26.50
2018-04-23T09:33:54.710Z,26.50
2018-04-23T09:36:22.084Z,26.50
2018-04-23T09:38:49.612Z,26.50
2018-04-23T09:41:17.718Z,26.50
2018-04-23T09:43:45.840Z,26.50
2018-04-23T09:46:13.174Z,26.40
2018-04-23T09:51:08.894Z,24.50
2018-04-23T09:53:36.420Z,25.40
2018-04-23T09:56:04.047Z,26.20
2018-04-23T09:58:32.157Z,26.40
2018-04-23T10:01:00.267Z,26.30
2018-04-23T10:03:34.294Z,25.90
2018-04-23T10:06:01.690Z,25.50
2018-04-23T10:08:29.028Z,25.80
2018-04-23T10:13:25.712Z,25.80
2018-04-23T10:18:22.142Z,25.60
2018-04-23T10:23:17.782Z,25.30
2018-04-23T10:25:45.539Z,24.60
2018-04-23T10:28:12.931Z,23.80
2018-04-23T10:30:41.092Z,23.40
2018-04-23T10:33:08.439Z,23.00
2018-04-23T10:40:33.212Z,21.40
2018-04-23T10:45:29.662Z,20.70
2018-04-23T10:50:25.443Z,20.70
2018-04-23T10:52:52.797Z,20.40
2018-04-23T10:55:20.145Z,20.40
2018-04-23T11:00:16.535Z,20.70
2018-04-23T11:05:13.535Z,20.90
2018-04-23T11:10:10.019Z,21.20
2018-04-23T11:12:37.768Z,21.00
2018-04-23T11:15:05.150Z,21.10
2018-04-23T11:20:01.550Z,21.10
2018-04-23T11:24:58.013Z,21.40
2018-04-23T11:27:25.385Z,21.70
2018-04-23T11:29:52.867Z,21.40
2018-04-23T11:32:20.939Z,21.00
2018-04-23T11:34:48.292Z,20.80
2018-04-23T11:37:16.395Z,20.70
2018-04-23T11:42:12.958Z,20.80
2018-04-23T11:44:41.092Z,20.70
2018-04-23T11:49:37.520Z,21.30
2018-04-23T11:52:04.924Z,22.00
2018-04-23T11:54:33.029Z,22.30
2018-04-23T11:59:29.430Z,21.70
2018-04-23T12:04:25.133Z,21.60
2018-04-23T12:09:21.482Z,21.30
2018-04-23T12:11:48.898Z,21.20
2018-04-23T12:14:17.271Z,21.30
2018-04-23T12:16:45.643Z,21.20
2018-04-23T12:19:13.754Z,20.80
2018-04-23T12:21:41.116Z,20.40
2018-04-23T12:24:08.527Z,20.30
2018-04-23T12:29:04.945Z,20.20
2018-04-23T12:31:32.291Z,20.30
2018-04-23T12:36:28.709Z,20.10
2018-04-23T12:38:56.958Z,20.00
2018-04-23T12:43:52.716Z,19.80
2018-04-23T12:46:20.156Z,20.00
2018-04-23T12:51:16.547Z,20.00
2018-04-23T12:56:12.214Z,19.60
2018-04-23T12:58:40.295Z,19.60
2018-04-23T13:01:08.458Z,19.80
2018-04-23T13:03:35.957Z,20.10
2018-04-23T13:06:04.095Z,20.20
2018-04-23T13:13:28.058Z,19.90
2018-04-23T13:15:55.420Z,19.70
2018-04-23T13:18:22.870Z,19.80
2018-04-23T13:20:50.245Z,20.30
2018-04-23T13:28:14.281Z,21.20
2018-04-23T13:33:10.065Z,21.00
2018-04-23T13:38:05.728Z,21.50
2018-04-23T13:40:34.120Z,22.40
2018-04-23T13:43:01.779Z,23.50
2018-04-23T13:47:58.191Z,25.20
2018-04-23T13:50:25.639Z,26.10
2018-04-23T13:55:21.692Z,25.20
2018-04-23T13:57:49.183Z,24.60
2018-04-23T14:02:45.951Z,25.30
2018-04-23T14:05:13.438Z,25.60
2018-04-23T14:07:41.619Z,25.90
2018-04-23T14:10:09.034Z,24.60
2018-04-23T14:12:36.398Z,23.40
2018-04-23T14:15:04.539Z,24.10
2018-04-23T14:20:00.240Z,24.20
2018-04-23T14:22:28.354Z,24.20
2018-04-23T14:27:25.630Z,23.80
2018-04-23T14:29:53.078Z,23.30
2018-04-23T14:32:20.429Z,22.50
2018-04-23T14:37:16.269Z,22.70
2018-04-23T14:42:11.934Z,23.70
2018-04-23T14:44:39.303Z,23.00
2018-04-23T14:47:07.435Z,22.70
2018-04-23T14:52:03.962Z,22.60
2018-04-23T14:54:31.456Z,22.30
2018-04-23T15:01:56.425Z,22.60
2018-04-23T15:06:53.008Z,21.40
2018-04-23T15:11:49.519Z,21.40
2018-04-23T15:14:17.667Z,21.60
2018-04-23T15:16:45.050Z,21.10
2018-04-23T15:21:40.663Z,21.10
2018-04-23T15:24:09.215Z,20.90
2018-04-23T15:26:36.618Z,20.90
2018-04-23T15:31:32.358Z,20.90
2018-04-23T15:36:28.103Z,20.70
2018-04-23T15:38:55.556Z,20.20
2018-04-23T15:41:22.906Z,20.20
2018-04-23T15:43:50.334Z,20.30
2018-04-23T15:46:18.346Z,20.40
2018-04-23T15:53:42.419Z,20.40
2018-04-23T15:56:09.781Z,20.40
2018-04-23T15:58:38.010Z,19.90
2018-04-23T16:01:06.165Z,19.80
2018-04-23T16:03:33.510Z,20.00
2018-04-23T16:06:00.913Z,20.20
2018-04-23T16:08:28.272Z,19.90
2018-04-23T16:10:56.410Z,19.70
2018-04-23T16:15:52.796Z,19.60
2018-04-23T16:18:20.158Z,19.70
2018-04-23T16:20:48.305Z,19.80
2018-04-23T16:25:44.808Z,20.40
2018-04-23T16:28:12.942Z,20.40
2018-04-23T16:30:40.630Z,21.10
2018-04-23T16:33:08.064Z,21.40
2018-04-23T16:38:15.446Z,21.70
2018-04-23T16:40:44.559Z,21.10
2018-04-23T16:43:12.027Z,21.10
2018-04-23T16:45:39.759Z,21.20
2018-04-23T16:48:08.308Z,21.80
2018-04-23T16:50:36.450Z,22.00
2018-04-23T16:53:03.894Z,21.50
2018-04-23T16:55:31.371Z,21.10
2018-04-23T16:57:58.773Z,20.80
2018-04-23T17:00:26.921Z,20.60
2018-04-23T17:02:55.082Z,20.40
2018-04-23T17:05:22.746Z,20.70
2018-04-23T17:07:50.219Z,20.50
2018-04-23T17:10:21.703Z,20.10
2018-04-23T17:12:50.294Z,20.00
2018-04-23T17:15:17.683Z,20.10
2018-04-23T17:17:45.046Z,19.90
2018-04-23T17:20:12.895Z,19.80
2018-04-23T17:22:40.362Z,19.80
2018-04-23T17:25:08.535Z,19.70
2018-04-23T17:27:35.882Z,19.60
2018-04-23T17:30:03.388Z,19.60
2018-04-23T17:32:30.798Z,19.60
2018-04-23T17:34:58.170Z,19.30
2018-04-23T17:37:25.689Z,19.60
2018-04-23T17:39:53.095Z,19.70
2018-04-23T17:42:21.222Z,19.50
2018-04-23T17:44:49.444Z,19.40
2018-04-23T17:47:17.783Z,19.30
2018-04-23T17:49:45.168Z,19.30
2018-04-23T17:52:20.151Z,19.50
2018-04-23T17:54:47.887Z,19.60
2018-04-23T17:57:16.162Z,19.80
2018-04-23T17:59:44.285Z,19.60
2018-04-23T18:02:11.628Z,19.60
2018-04-23T18:04:38.955Z,19.60
2018-04-23T18:07:08.167Z,19.50
2018-04-23T18:09:35.414Z,19.40
2018-04-23T18:12:02.748Z,19.20
2018-04-23T18:14:30.020Z,19.00
2018-04-23T18:16:57.354Z,18.90
2018-04-23T18:19:25.378Z,19.10
2018-04-23T18:21:52.752Z,19.20
2018-04-23T18:24:20.095Z,19.00
2018-04-23T18:26:47.354Z,19.00
2018-04-23T18:29:14.638Z,19.20
2018-04-23T18:31:41.892Z,19.20
2018-04-23T18:34:09.218Z,19.20
2018-04-23T18:36:38.376Z,19.10
2018-04-23T18:39:07.514Z,19.00
2018-04-23T18:41:35.607Z,19.00
2018-04-23T18:44:02.947Z,19.00
2018-04-23T18:46:31.070Z,18.90
2018-04-23T18:49:00.837Z,18.80
2018-04-23T18:51:28.963Z,18.80
2018-04-23T18:53:56.338Z,19.40
2018-04-23T18:56:23.838Z,19.20
2018-04-23T18:58:51.159Z,19.10
2018-04-23T19:01:18.496Z,19.30
2018-04-23T19:03:46.052Z,19.60
2018-04-23T19:06:13.510Z,19.40
2018-04-23T19:08:40.916Z,19.40
2018-04-23T19:11:08.314Z,19.20
2018-04-23T19:13:35.782Z,19.10
2018-04-23T19:16:03.299Z,19.20
2018-04-23T19:18:31.005Z,19.20
2018-04-23T19:20:58.475Z,18.90
2018-04-23T19:23:26.482Z,18.90
2018-04-23T19:25:54.118Z,19.40
2018-04-23T19:28:21.605Z,19.20
2018-04-23T19:30:48.898Z,19.90
2018-04-23T19:33:16.236Z,20.10
2018-04-23T19:35:43.751Z,19.70
2018-04-23T19:38:11.416Z,19.60
2018-04-23T19:40:38.824Z,19.40
2018-04-23T19:43:06.216Z,19.20
2018-04-23T19:45:33.514Z,19.10
2018-04-23T19:48:00.824Z,19.00
2018-04-23T19:50:28.114Z,18.90
2018-04-23T19:52:55.618Z,18.90
2018-04-23T19:55:23.846Z,18.90
2018-04-23T19:57:51.177Z,18.90
2018-04-23T20:00:18.498Z,18.80
2018-04-23T20:02:46.622Z,18.70
2018-04-23T20:05:14.137Z,18.60
2018-04-23T20:07:41.491Z,18.70
2018-04-23T20:10:08.929Z,18.60
2018-04-23T20:12:36.279Z,18.50
2018-04-23T20:15:04.648Z,18.30
2018-04-23T20:17:31.978Z,18.20
2018-04-23T20:19:59.335Z,18.10
2018-04-23T20:22:26.650Z,18.00
2018-04-23T20:24:54.056Z,17.90
2018-04-23T20:27:21.347Z,17.90
2018-04-23T20:29:48.754Z,17.80
2018-04-23T20:32:16.107Z,17.60
2018-04-23T20:34:43.483Z,17.50
2018-04-23T20:37:10.802Z,17.50
2018-04-23T20:39:38.191Z,17.40
2018-04-23T20:42:05.659Z,17.40
2018-04-23T20:44:32.947Z,17.40
2018-04-23T20:47:00.689Z,17.50
2018-04-23T20:49:28.789Z,17.60
2018-04-23T20:51:56.199Z,18.10
2018-04-23T20:54:23.496Z,18.30
2018-04-23T20:56:50.983Z,18.30
2018-04-23T20:59:18.412Z,18.70
2018-04-23T21:01:45.720Z,18.80
2018-04-23T21:04:13.172Z,19.40
2018-04-23T21:06:40.539Z,20.30
2018-04-23T21:09:08.573Z,20.80
2018-04-23T21:11:36.030Z,21.00
2018-04-23T21:14:03.325Z,21.40
2018-04-23T21:16:31.551Z,21.30
2018-04-23T21:18:58.858Z,20.70
2018-04-23T21:21:26.887Z,19.80
2018-04-23T21:23:54.195Z,19.00
2018-04-23T21:26:21.600Z,19.00
2018-04-23T21:28:48.902Z,18.80
2018-04-23T21:31:17.038Z,19.30
2018-04-23T21:33:45.074Z,18.80
2018-04-23T21:36:12.362Z,18.10
2018-04-23T21:38:39.698Z,17.80
2018-04-23T21:41:07.117Z,17.60
2018-04-23T21:43:34.699Z,17.40
2018-04-23T21:46:02.161Z,17.80
2018-04-23T21:48:29.629Z,17.90
2018-04-23T21:50:56.929Z,17.60
2018-04-23T21:53:25.018Z,18.10
2018-04-23T21:55:52.271Z,18.30
2018-04-23T21:58:19.552Z,18.10
2018-04-23T22:00:46.836Z,17.80
2018-04-23T22:03:14.161Z,17.60
2018-04-23T22:05:42.150Z,17.50
2018-04-23T22:08:09.438Z,17.20
2018-04-23T22:10:36.926Z,17.00
2018-04-23T22:13:04.215Z,17.00
2018-04-23T22:15:31.755Z,16.80
2018-04-23T22:17:59.095Z,17.00
2018-04-23T22:20:26.342Z,17.00
2018-04-23T22:22:54.409Z,17.10
2018-04-23T22:25:22.386Z,17.20
2018-04-23T22:27:50.467Z,17.10
2018-04-23T22:30:17.785Z,16.90
2018-04-23T22:32:45.053Z,16.70
2018-04-23T22:35:13.250Z,16.60
2018-04-23T22:37:40.511Z,16.40
2018-04-23T22:40:07.743Z,16.20
2018-04-23T22:42:35.842Z,16.10
2018-04-23T22:45:03.136Z,16.00
2018-04-23T22:47:31.214Z,16.10
2018-04-23T22:49:59.241Z,16.10
2018-04-23T22:54:55.674Z,16.20
2018-04-23T22:57:23.006Z,16.20
2018-04-23T22:59:50.305Z,16.10
2018-04-23T23:02:18.421Z,16.00
2018-04-23T23:04:45.788Z,16.30
2018-04-23T23:07:13.850Z,17.00
2018-04-23T23:09:41.295Z,18.20
2018-04-23T23:14:37.802Z,19.70
2018-04-23T23:17:05.949Z,20.40
2018-04-23T23:19:34.054Z,20.70
2018-04-23T23:22:01.538Z,20.90
2018-04-23T23:24:28.889Z,21.10
2018-04-23T23:26:56.233Z,21.20
2018-04-23T23:29:24.442Z,19.90
2018-04-23T23:31:51.995Z,19.20
2018-04-23T23:36:54.828Z,19.60
2018-04-23T23:39:22.196Z,20.10
2018-04-23T23:41:49.667Z,20.50
2018-04-23T23:44:17.847Z,20.50
2018-04-23T23:46:45.999Z,19.60
2018-04-23T23:49:13.365Z,18.50
2018-04-23T23:54:08.990Z,17.20
2018-04-23T23:56:36.332Z,17.00
